地図

経路データ

SID SEASON NUMBER BASIN SUBBASIN NAME ISO_TIME NATURE LAT LON WMO_WIND WMO_PRES WMO_AGENCY TRACK_TYPE DIST2LAND LANDFALL IFLAG USA_AGENCY USA_ATCF_ID USA_LAT USA_LON USA_RECORD USA_STATUS USA_WIND USA_PRES USA_SSHS USA_R34_NE USA_R34_SE USA_R34_SW USA_R34_NW USA_R50_NE USA_R50_SE USA_R50_SW USA_R50_NW USA_R64_NE USA_R64_SE USA_R64_SW USA_R64_NW USA_POCI USA_ROCI USA_RMW USA_EYE TOKYO_LAT TOKYO_LON TOKYO_GRADE TOKYO_WIND TOKYO_PRES TOKYO_R50_DIR TOKYO_R50_LONG TOKYO_R50_SHORT TOKYO_R30_DIR TOKYO_R30_LONG TOKYO_R30_SHORT TOKYO_LAND CMA_LAT CMA_LON CMA_CAT CMA_WIND CMA_PRES HKO_LAT HKO_LON HKO_CAT HKO_WIND HKO_PRES NEWDELHI_LAT NEWDELHI_LON NEWDELHI_GRADE NEWDELHI_WIND NEWDELHI_PRES NEWDELHI_CI NEWDELHI_DP NEWDELHI_POCI REUNION_LAT REUNION_LON REUNION_TYPE REUNION_WIND REUNION_PRES REUNION_TNUM REUNION_CI REUNION_RMW REUNION_R34_NE REUNION_R34_SE REUNION_R34_SW REUNION_R34_NW REUNION_R50_NE REUNION_R50_SE REUNION_R50_SW REUNION_R50_NW REUNION_R64_NE REUNION_R64_SE REUNION_R64_SW REUNION_R64_NW BOM_LAT BOM_LON BOM_TYPE BOM_WIND BOM_PRES BOM_TNUM BOM_CI BOM_RMW BOM_R34_NE BOM_R34_SE BOM_R34_SW BOM_R34_NW BOM_R50_NE BOM_R50_SE BOM_R50_SW BOM_R50_NW BOM_R64_NE BOM_R64_SE BOM_R64_SW BOM_R64_NW BOM_ROCI BOM_POCI BOM_EYE BOM_POS_METHOD BOM_PRES_METHOD NADI_LAT NADI_LON NADI_CAT NADI_WIND NADI_PRES WELLINGTON_LAT WELLINGTON_LON WELLINGTON_WIND WELLINGTON_PRES DS824_LAT DS824_LON DS824_STAGE DS824_WIND DS824_PRES TD9636_LAT TD9636_LON TD9636_STAGE TD9636_WIND TD9636_PRES TD9635_LAT TD9635_LON TD9635_WIND TD9635_PRES TD9635_ROCI NEUMANN_LAT NEUMANN_LON NEUMANN_CLASS NEUMANN_WIND NEUMANN_PRES MLC_LAT MLC_LON MLC_CLASS MLC_WIND MLC_PRES USA_GUST BOM_GUST BOM_GUST_PER REUNION_GUST REUNION_GUST_PER USA_SEAHGT USA_SEARAD_NE USA_SEARAD_SE USA_SEARAD_SW USA_SEARAD_NW STORM_SPEED STORM_DIR
1947175N19090 1947 41 NI BB NOT_NAMED 1947-06-23 18:00:00 TS 18.7000 90.2000 main 317 311 O________O____ jtwc_io IO041947 18.7000 90.2000 -1 18.7000 90.2000 TC 2 335
1947175N19090 1947 41 NI BB NOT_NAMED 1947-06-23 21:00:00 TS 18.7950 90.1500 main 311 311 P________P____ IO041947 18.7950 90.1500 -1 18.7950 90.1500 TC 2 333
1947175N19090 1947 41 NI BB NOT_NAMED 1947-06-24 00:00:00 TS 18.9000 90.1000 main 313 305 O________O____ jtwc_io IO041947 18.9000 90.1000 -1 18.9000 90.1000 TC 25 2 337
1947175N19090 1947 41 NI BB NOT_NAMED 1947-06-24 03:00:00 TS 19.0133 90.0445 main 305 294 P________PO___ IO041947 19.0150 90.0500 -1 19.0150 90.0500 TC 25 19.0000 90.0000 1 2 332
1947175N19090 1947 41 NI BB NOT_NAMED 1947-06-24 06:00:00 TS 19.0884 89.9956 main 294 291 O________OP___ jtwc_io IO041947 19.1000 90.0000 -1 19.1000 90.0000 TC 25 19.0422 89.9781 1 1 312
1947175N19090 1947 41 NI BB NOT_NAMED 1947-06-24 09:00:00 TS 19.0966 89.9459 main 291 291 P________PP___ IO041947 19.1000 89.9425 -1 19.1000 89.9425 TC 25 19.0875 89.9550 1 1 288
1947175N19090 1947 41 NI BB NOT_NAMED 1947-06-24 12:00:00 TS 19.1130 89.9098 main 291 281 O________OP___ jtwc_io IO041947 19.1000 89.9000 -1 19.1000 89.9000 TC 25 19.1391 89.9294 1 1 340
1947175N19090 1947 41 NI BB NOT_NAMED 1947-06-24 15:00:00 TS 19.1950 89.9000 main 281 270 P________PO___ IO041947 19.1925 89.9000 -1 19.1925 89.9000 TC 25 19.2000 89.9000 1 2 0
1947175N19090 1947 41 NI BB NOT_NAMED 1947-06-24 18:00:00 TS 19.2906 89.8884 main 270 270 O________OP___ jtwc_io IO041947 19.3000 89.9000 -1 19.3000 89.9000 TC 25 19.2719 89.8653 1 2 348
1947175N19090 1947 41 NI BB NOT_NAMED 1947-06-24 21:00:00 TS 19.3500 89.8508 main 270 256 P________PP___ IO041947 19.3500 89.8650 -1 19.3500 89.8650 TC 25 19.3500 89.8225 1 2 321
1947175N19090 1947 41 NI BB NOT_NAMED 1947-06-25 00:00:00 TS 19.4094 89.7895 main 256 243 O________OP___ jtwc_io IO041947 19.4000 89.8000 -1 19.4000 89.8000 TC 25 19.4281 89.7684 1 2 319
1947175N19090 1947 41 NI BB NOT_NAMED 1947-06-25 03:00:00 TS 19.5050 89.7050 main 243 229 P________PO___ IO041947 19.5075 89.7075 -1 19.5075 89.7075 TC 25 19.5000 89.7000 1 2 314
1947175N19090 1947 41 NI BB NOT_NAMED 1947-06-25 06:00:00 TS 19.5844 89.6034 main 229 227 O________OP___ jtwc_io IO041947 19.6000 89.6000 -1 19.6000 89.6000 TC 25 19.5532 89.6103 1 2 296
1947175N19090 1947 41 NI BB NOT_NAMED 1947-06-25 09:00:00 TS 19.6000 89.5024 main 227 225 P________PP___ IO041947 19.6000 89.4999 -1 19.6000 89.4999 TC 25 19.6000 89.5075 1 2 279
1947175N19090 1947 41 NI BB NOT_NAMED 1947-06-25 12:00:00 TS 19.6156 89.4003 main 225 213 O________OP___ jtwc_io IO041947 19.6000 89.4000 -1 19.6000 89.4000 TC 25 19.6469 89.4009 1 2 296
1947175N19090 1947 41 NI BB NOT_NAMED 1947-06-25 15:00:00 TS 19.6950 89.2950 main 213 201 P________PO___ IO041947 19.6925 89.2925 -1 19.6925 89.2925 TC 25 19.7000 89.3000 1 3 314
1947175N19090 1947 41 NI BB NOT_NAMED 1947-06-25 18:00:00 TS 19.7879 89.2086 main 201 201 O________OP___ jtwc_io IO041947 19.8000 89.2000 -1 19.8000 89.2000 TC 25 19.7637 89.2259 1 2 319
1947175N19090 1947 41 NI BB NOT_NAMED 1947-06-25 21:00:00 TS 19.8450 89.1524 main 201 190 P________PP___ IO041947 19.8500 89.1500 -1 19.8500 89.1500 TC 30 19.8349 89.1574 1 2 317
1947175N19090 1947 41 NI BB NOT_NAMED 1947-06-26 00:00:00 TS 19.9046 89.0951 main 190 178 O________OP___ jtwc_io IO041947 19.9000 89.1000 -1 19.9000 89.1000 TC 35 19.9137 89.0852 1 2 319
1947175N19090 1947 41 NI BB NOT_NAMED 1947-06-26 03:00:00 TS 19.9950 89.0100 main 178 167 P________PO___ IO041947 19.9925 89.0150 -1 19.9925 89.0150 TC 35 20.0000 89.0000 2 3 317
1947175N19090 1947 41 NI BB NOT_NAMED 1947-06-26 06:00:00 TS 20.0976 88.9005 main 167 156 O________OP___ jtwc_io IO041947 20.1000 88.9000 -1 20.1000 88.9000 TC 35 20.0928 88.9015 2 3 311
1947175N19090 1947 41 NI BB NOT_NAMED 1947-06-26 09:00:00 TS 20.1975 88.7625 main 156 145 P________PP___ IO041947 20.2000 88.7500 -1 20.2000 88.7500 TC 35 20.1924 88.7874 2 3 307
1947175N19090 1947 41 NI BB NOT_NAMED 1947-06-26 12:00:00 TS 20.2986 88.6182 main 145 134 O________OP___ jtwc_io IO041947 20.3000 88.6000 -1 20.3000 88.6000 TC 35 20.2958 88.6546 2 3 310
1947175N19090 1947 41 NI BB NOT_NAMED 1947-06-26 15:00:00 TS 20.4000 88.5050 main 134 123 P________PO___ IO041947 20.3999 88.5074 -1 20.3999 88.5074 TC 35 20.4000 88.5000 3 3 314
1947175N19090 1947 41 NI BB NOT_NAMED 1947-06-26 18:00:00 TS 20.4983 88.4007 main 123 111 O________OP___ jtwc_io IO041947 20.5000 88.4000 -1 20.5000 88.4000 TC 35 20.4948 88.4023 3 3 310
1947175N19090 1947 41 NI BB NOT_NAMED 1947-06-26 21:00:00 TS 20.5968 88.2538 main 111 101 P________PP___ IO041947 20.5999 88.2449 -1 20.5999 88.2449 TC 35 20.5906 88.2716 3 4 299
1947175N19090 1947 41 NI BB NOT_NAMED 1947-06-27 00:00:00 TS 20.6970 88.0184 main 102 72 O________OP___ jtwc_io IO041947 20.7000 88.0000 -1 20.7000 88.0000 TC 35 20.6911 88.0552 3 6 291
1947175N19090 1947 41 NI BB NOT_NAMED 1947-06-27 03:00:00 TS 20.7997 87.6932 main 72 23 P________PO___ IO041947 20.7995 87.6899 -1 20.7995 87.6899 TC 35 20.8000 87.7000 3 8 284
1947175N19090 1947 41 NI BB NOT_NAMED 1947-06-27 06:00:00 TS 20.9011 87.1731 main 23 0 O________OP___ jtwc_io IO041947 20.9000 87.2000 -1 20.9000 87.2000 TC 35 20.9034 87.1193 3 12 279
1947175N19090 1947 41 NI BB NOT_NAMED 1947-06-27 09:00:00 TS 20.9955 86.4265 main 0 0 P________PP___ IO041947 20.9856 86.4373 -1 20.9856 86.4373 TC 30 21.0152 86.4047 3 15 278
1947175N19090 1947 41 NI BB NOT_NAMED 1947-06-27 12:00:00 TS 21.1147 85.6126 main 0 0 O________OP___ jtwc_io IO041947 21.1000 85.6000 -1 21.1000 85.6000 TC 25 21.1440 85.6378 3 14 282
1947175N19090 1947 41 NI BB NOT_NAMED 1947-06-27 15:00:00 TS 21.2848 84.9083 main 0 0 P________PO___ IO041947 21.2771 84.9125 -1 21.2771 84.9125 TC 25 21.3000 84.9000 1 13 287
1947175N19090 1947 41 NI BB NOT_NAMED 1947-06-27 18:00:00 TS 21.4985 84.2902 main 0 0 O________OP___ jtwc_io IO041947 21.5000 84.3000 -1 21.5000 84.3000 TC 25 21.4956 84.2707 1 12 292
1947175N19090 1947 41 NI BB NOT_NAMED 1947-06-27 21:00:00 TS 21.7397 83.7093 main 0 0 P________PP___ IO041947 21.7498 83.7200 -1 21.7498 83.7200 TC 25 21.7194 83.6880 1 11 295
1947175N19090 1947 41 NI BB NOT_NAMED 1947-06-28 00:00:00 TS 21.9862 83.1871 main 0 0 O________OP___ jtwc_io IO041947 22.0000 83.2000 -1 22.0000 83.2000 TC 25 21.9585 83.1613 1 10 296
1947175N19090 1947 41 NI BB NOT_NAMED 1947-06-28 03:00:00 TS 22.1999 82.7082 main 0 0 P________PO___ IO041947 22.1999 82.7123 -1 22.1999 82.7123 TC 25 22.2000 82.7000 1 9 297
1947175N19090 1947 41 NI BB NOT_NAMED 1947-06-28 06:00:00 TS 22.4081 82.2965 main 0 0 O________OP___ jtwc_io IO041947 22.4000 82.3000 -1 22.4000 82.3000 TC 25 22.4242 82.2895 1 8 303
1947175N19090 1947 41 NI BB NOT_NAMED 1947-06-28 09:00:00 TS 22.6496 81.9614 main 0 0 P________PP___ IO041947 22.6498 81.9699 -1 22.6498 81.9699 TC 25 22.6491 81.9444 1 7 311
1947175N19090 1947 41 NI BB NOT_NAMED 1947-06-28 12:00:00 TS 22.8915 81.6840 main 0 0 O________OP___ jtwc_io IO041947 22.9000 81.7000 -1 22.9000 81.7000 TC 25 22.8745 81.6521 1 7 312
1947175N19090 1947 41 NI BB NOT_NAMED 1947-06-28 15:00:00 TS 23.1000 81.4232 main 0 0 P________PO___ IO041947 23.1000 81.4348 -1 23.1000 81.4348 TC 25 23.1000 81.4000 1 6 313
1947175N19090 1947 41 NI BB NOT_NAMED 1947-06-28 18:00:00 TS 23.3101 81.1905 main 0 0 O________OP___ jtwc_io IO041947 23.3000 81.2000 -1 23.3000 81.2000 TC 25 23.3253 81.1763 1 6 318
1947175N19090 1947 41 NI BB NOT_NAMED 1947-06-28 21:00:00 TS 23.5431 80.9843 main 0 0 P________PP___ IO041947 23.5375 80.9927 -1 23.5375 80.9927 TC 25 23.5504 80.9730 1 6 323
1947175N19090 1947 41 NI BB NOT_NAMED 1947-06-29 00:00:00 TS 23.7877 80.7916 main 0 0 O________OP___ jtwc_io IO041947 23.8000 80.8000 -1 23.8000 80.8000 TC 25 23.7753 80.7833 1 6 322
1947175N19090 1947 41 NI BB NOT_NAMED 1947-06-29 03:00:00 NR 24.0000 80.6000 main 0 __________O___ IO041947 -1 TC 24.0000 80.6000 1 6 320

IBTrACS Databaseについて

本データベースは、米国NOAAが公開する1842年以降の世界の熱帯低気圧のベストトラックデータアーカイブInternational Best Track Archive for Climate Stewardship (IBTrACS)を、ウェブで閲覧しやすい形式に変換したものです。

最終更新日:2021-12-01